sensor_id;sensor_type;location;lat;lon;timestamp;pressure;altitude;pressure_sealevel;temperature
58929;BMP180;44713;53.378;10.022;2023-03-23T00:00:07;100032.00;;;11.00
58929;BMP180;44713;53.378;10.022;2023-03-23T00:02:36;100036.00;;;11.00
58929;BMP180;44713;53.378;10.022;2023-03-23T00:05:07;100035.00;;;10.90
58929;BMP180;44713;53.378;10.022;2023-03-23T00:07:34;100030.00;;;10.90
58929;BMP180;44713;53.378;10.022;2023-03-23T00:10:00;100033.00;;;10.90
58929;BMP180;44713;53.378;10.022;2023-03-23T00:12:30;100034.00;;;10.80
58929;BMP180;44713;53.378;10.022;2023-03-23T00:15:03;100034.00;;;10.80
58929;BMP180;44713;53.378;10.022;2023-03-23T00:17:30;100036.00;;;10.80
58929;BMP180;44713;53.378;10.022;2023-03-23T00:19:58;100026.00;;;10.80
58929;BMP180;44713;53.378;10.022;2023-03-23T00:22:27;100032.00;;;10.80
58929;BMP180;44713;53.378;10.022;2023-03-23T00:24:53;100029.00;;;10.70
58929;BMP180;44713;53.378;10.022;2023-03-23T00:27:19;100034.00;;;10.70
58929;BMP180;44713;53.378;10.022;2023-03-23T00:29:46;100028.00;;;10.70
58929;BMP180;44713;53.378;10.022;2023-03-23T00:32:12;100028.00;;;10.70
58929;BMP180;44713;53.378;10.022;2023-03-23T00:34:40;100035.00;;;10.60
58929;BMP180;44713;53.378;10.022;2023-03-23T00:37:10;100034.00;;;10.60
58929;BMP180;44713;53.378;10.022;2023-03-23T00:39:37;100037.00;;;10.70
58929;BMP180;44713;53.378;10.022;2023-03-23T00:42:04;100027.00;;;10.70
58929;BMP180;44713;53.378;10.022;2023-03-23T00:44:31;100011.00;;;10.60
58929;BMP180;44713;53.378;10.022;2023-03-23T00:46:58;100009.00;;;10.70
58929;BMP180;44713;53.378;10.022;2023-03-23T00:49:25;100008.00;;;10.70
58929;BMP180;44713;53.378;10.022;2023-03-23T00:51:56;100004.00;;;10.60
58929;BMP180;44713;53.378;10.022;2023-03-23T00:54:22;99997.00;;;10.60
58929;BMP180;44713;53.378;10.022;2023-03-23T00:56:49;99971.00;;;10.60
58929;BMP180;44713;53.378;10.022;2023-03-23T00:59:15;99964.00;;;10.50
58929;BMP180;44713;53.378;10.022;2023-03-23T01:01:41;99963.00;;;10.60
58929;BMP180;44713;53.378;10.022;2023-03-23T01:04:08;99970.00;;;10.60
58929;BMP180;44713;53.378;10.022;2023-03-23T01:06:38;99969.00;;;10.60
58929;BMP180;44713;53.378;10.022;2023-03-23T01:09:06;99971.00;;;10.60
58929;BMP180;44713;53.378;10.022;2023-03-23T01:11:31;99963.00;;;10.60
58929;BMP180;44713;53.378;10.022;2023-03-23T01:13:57;99938.00;;;10.60
58929;BMP180;44713;53.378;10.022;2023-03-23T01:16:23;99934.00;;;10.50
58929;BMP180;44713;53.378;10.022;2023-03-23T01:18:49;99923.00;;;10.60
58929;BMP180;44713;53.378;10.022;2023-03-23T01:21:17;99925.00;;;10.60
58929;BMP180;44713;53.378;10.022;2023-03-23T01:23:43;99924.00;;;10.60
58929;BMP180;44713;53.378;10.022;2023-03-23T01:26:13;99919.00;;;10.60
58929;BMP180;44713;53.378;10.022;2023-03-23T01:28:39;99923.00;;;10.60
58929;BMP180;44713;53.378;10.022;2023-03-23T01:31:10;99919.00;;;10.60
58929;BMP180;44713;53.378;10.022;2023-03-23T01:33:38;99912.00;;;10.50
58929;BMP180;44713;53.378;10.022;2023-03-23T01:36:06;99901.00;;;10.50
58929;BMP180;44713;53.378;10.022;2023-03-23T01:38:33;99905.00;;;10.50
58929;BMP180;44713;53.378;10.022;2023-03-23T01:40:59;99910.00;;;10.60
58929;BMP180;44713;53.378;10.022;2023-03-23T01:43:25;99912.00;;;10.60
58929;BMP180;44713;53.378;10.022;2023-03-23T01:45:51;99900.00;;;10.60
58929;BMP180;44713;53.378;10.022;2023-03-23T01:48:32;99907.00;;;10.60
58929;BMP180;44713;53.378;10.022;2023-03-23T01:51:05;99902.00;;;10.60
58929;BMP180;44713;53.378;10.022;2023-03-23T01:53:38;99893.00;;;10.60
58929;BMP180;44713;53.378;10.022;2023-03-23T01:56:06;99888.00;;;10.70
58929;BMP180;44713;53.378;10.022;2023-03-23T01:58:34;99884.00;;;10.60
58929;BMP180;44713;53.378;10.022;2023-03-23T02:01:04;99880.00;;;10.70
58929;BMP180;44713;53.378;10.022;2023-03-23T02:03:31;99879.00;;;10.70
58929;BMP180;44713;53.378;10.022;2023-03-23T02:05:58;99886.00;;;10.70
58929;BMP180;44713;53.378;10.022;2023-03-23T02:08:35;99887.00;;;10.60
58929;BMP180;44713;53.378;10.022;2023-03-23T02:11:11;99893.00;;;10.70
58929;BMP180;44713;53.378;10.022;2023-03-23T02:13:37;99887.00;;;10.60
58929;BMP180;44713;53.378;10.022;2023-03-23T02:18:53;99877.00;;;10.70
58929;BMP180;44713;53.378;10.022;2023-03-23T02:21:35;99882.00;;;10.80
58929;BMP180;44713;53.378;10.022;2023-03-23T02:24:28;99881.00;;;10.80
58929;BMP180;44713;53.378;10.022;2023-03-23T02:27:05;99871.00;;;10.80
58929;BMP180;44713;53.378;10.022;2023-03-23T02:32:51;99873.00;;;10.80
58929;BMP180;44713;53.378;10.022;2023-03-23T02:35:29;99867.00;;;10.80
58929;BMP180;44713;53.378;10.022;2023-03-23T02:37:59;99866.00;;;10.80
58929;BMP180;44713;53.378;10.022;2023-03-23T02:40:32;99856.00;;;10.80
58929;BMP180;44713;53.378;10.022;2023-03-23T02:42:58;99849.00;;;10.70
58929;BMP180;44713;53.378;10.022;2023-03-23T02:45:27;99841.00;;;10.80
58929;BMP180;44713;53.378;10.022;2023-03-23T02:47:55;99851.00;;;10.70
58929;BMP180;44713;53.378;10.022;2023-03-23T02:50:23;99853.00;;;10.80
58929;BMP180;44713;53.378;10.022;2023-03-23T02:52:50;99851.00;;;10.70
58929;BMP180;44713;53.378;10.022;2023-03-23T02:55:18;99834.00;;;10.80
58929;BMP180;44713;53.378;10.022;2023-03-23T02:57:45;99833.00;;;10.80
58929;BMP180;44713;53.378;10.022;2023-03-23T03:00:16;99834.00;;;10.80
58929;BMP180;44713;53.378;10.022;2023-03-23T03:02:53;99826.00;;;10.70
58929;BMP180;44713;53.378;10.022;2023-03-23T03:05:42;99831.00;;;10.70
58929;BMP180;44713;53.378;10.022;2023-03-23T03:08:28;99833.00;;;10.70
58929;BMP180;44713;53.378;10.022;2023-03-23T03:11:10;99829.00;;;10.70
58929;BMP180;44713;53.378;10.022;2023-03-23T03:13:55;99819.00;;;10.80
58929;BMP180;44713;53.378;10.022;2023-03-23T03:16:32;99821.00;;;10.80
58929;BMP180;44713;53.378;10.022;2023-03-23T03:21:34;99800.00;;;10.80
58929;BMP180;44713;53.378;10.022;2023-03-23T03:24:02;99785.00;;;10.80
58929;BMP180;44713;53.378;10.022;2023-03-23T03:26:30;99787.00;;;10.80
58929;BMP180;44713;53.378;10.022;2023-03-23T03:29:07;99767.00;;;10.80
58929;BMP180;44713;53.378;10.022;2023-03-23T03:31:40;99765.00;;;10.80
58929;BMP180;44713;53.378;10.022;2023-03-23T03:34:12;99774.00;;;10.90
58929;BMP180;44713;53.378;10.022;2023-03-23T03:36:40;99785.00;;;10.90
58929;BMP180;44713;53.378;10.022;2023-03-23T03:39:09;99776.00;;;10.90
58929;BMP180;44713;53.378;10.022;2023-03-23T03:41:37;99767.00;;;10.80
58929;BMP180;44713;53.378;10.022;2023-03-23T03:44:04;99758.00;;;10.90
58929;BMP180;44713;53.378;10.022;2023-03-23T03:46:31;99750.00;;;10.80
58929;BMP180;44713;53.378;10.022;2023-03-23T03:48:57;99758.00;;;10.80
58929;BMP180;44713;53.378;10.022;2023-03-23T03:51:24;99762.00;;;10.80
58929;BMP180;44713;53.378;10.022;2023-03-23T03:53:51;99754.00;;;10.80
58929;BMP180;44713;53.378;10.022;2023-03-23T03:56:16;99762.00;;;10.80
58929;BMP180;44713;53.378;10.022;2023-03-23T03:58:50;99741.00;;;10.80
58929;BMP180;44713;53.378;10.022;2023-03-23T04:01:37;99739.00;;;10.70
58929;BMP180;44713;53.378;10.022;2023-03-23T04:04:03;99737.00;;;10.80
58929;BMP180;44713;53.378;10.022;2023-03-23T04:06:33;99743.00;;;10.80
58929;BMP180;44713;53.378;10.022;2023-03-23T04:09:03;99744.00;;;10.80
58929;BMP180;44713;53.378;10.022;2023-03-23T04:11:33;99744.00;;;10.80
58929;BMP180;44713;53.378;10.022;2023-03-23T04:14:18;99747.00;;;10.90
58929;BMP180;44713;53.378;10.022;2023-03-23T04:16:44;99752.00;;;10.90
58929;BMP180;44713;53.378;10.022;2023-03-23T04:19:10;99743.00;;;10.90
58929;BMP180;44713;53.378;10.022;2023-03-23T04:21:37;99752.00;;;10.90
58929;BMP180;44713;53.378;10.022;2023-03-23T04:24:04;99761.00;;;10.80
58929;BMP180;44713;53.378;10.022;2023-03-23T04:26:30;99758.00;;;10.90
58929;BMP180;44713;53.378;10.022;2023-03-23T04:29:02;99742.00;;;10.90
58929;BMP180;44713;53.378;10.022;2023-03-23T04:31:28;99768.00;;;10.90
58929;BMP180;44713;53.378;10.022;2023-03-23T04:34:08;99762.00;;;10.90
58929;BMP180;44713;53.378;10.022;2023-03-23T04:36:40;99756.00;;;10.90
58929;BMP180;44713;53.378;10.022;2023-03-23T04:39:12;99756.00;;;10.90
58929;BMP180;44713;53.378;10.022;2023-03-23T04:41:39;99772.00;;;10.90
58929;BMP180;44713;53.378;10.022;2023-03-23T04:44:20;99758.00;;;10.90
58929;BMP180;44713;53.378;10.022;2023-03-23T04:46:54;99747.00;;;10.90
58929;BMP180;44713;53.378;10.022;2023-03-23T04:49:21;99757.00;;;10.90
58929;BMP180;44713;53.378;10.022;2023-03-23T04:51:51;99752.00;;;10.90
58929;BMP180;44713;53.378;10.022;2023-03-23T04:54:34;99758.00;;;11.00
58929;BMP180;44713;53.378;10.022;2023-03-23T04:57:00;99747.00;;;11.00
58929;BMP180;44713;53.378;10.022;2023-03-23T04:59:26;99746.00;;;11.00
58929;BMP180;44713;53.378;10.022;2023-03-23T05:02:31;99739.00;;;11.00
58929;BMP180;44713;53.378;10.022;2023-03-23T05:04:57;99732.00;;;10.90
58929;BMP180;44713;53.378;10.022;2023-03-23T05:07:25;99732.00;;;11.00
58929;BMP180;44713;53.378;10.022;2023-03-23T05:09:53;99734.00;;;11.00
58929;BMP180;44713;53.378;10.022;2023-03-23T05:12:21;99742.00;;;11.00
58929;BMP180;44713;53.378;10.022;2023-03-23T05:14:53;99737.00;;;11.10
58929;BMP180;44713;53.378;10.022;2023-03-23T05:17:21;99740.00;;;11.10
58929;BMP180;44713;53.378;10.022;2023-03-23T05:19:50;99731.00;;;11.00
58929;BMP180;44713;53.378;10.022;2023-03-23T05:22:32;99725.00;;;10.90
58929;BMP180;44713;53.378;10.022;2023-03-23T05:24:59;99730.00;;;10.90
58929;BMP180;44713;53.378;10.022;2023-03-23T05:27:28;99735.00;;;11.00
58929;BMP180;44713;53.378;10.022;2023-03-23T05:29:57;99724.00;;;11.00
58929;BMP180;44713;53.378;10.022;2023-03-23T05:32:27;99738.00;;;11.00
58929;BMP180;44713;53.378;10.022;2023-03-23T05:34:57;99744.00;;;11.00
58929;BMP180;44713;53.378;10.022;2023-03-23T05:37:24;99750.00;;;11.00
58929;BMP180;44713;53.378;10.022;2023-03-23T05:39:58;99743.00;;;10.90
58929;BMP180;44713;53.378;10.022;2023-03-23T05:42:43;99749.00;;;11.00
58929;BMP180;44713;53.378;10.022;2023-03-23T05:45:15;99743.00;;;11.00
58929;BMP180;44713;53.378;10.022;2023-03-23T05:47:41;99743.00;;;11.00
58929;BMP180;44713;53.378;10.022;2023-03-23T05:50:12;99750.00;;;11.00
58929;BMP180;44713;53.378;10.022;2023-03-23T05:52:39;99740.00;;;11.00
58929;BMP180;44713;53.378;10.022;2023-03-23T05:55:08;99738.00;;;11.00
58929;BMP180;44713;53.378;10.022;2023-03-23T05:57:36;99742.00;;;11.00
58929;BMP180;44713;53.378;10.022;2023-03-23T06:00:05;99745.00;;;11.00
58929;BMP180;44713;53.378;10.022;2023-03-23T06:02:44;99739.00;;;11.00
58929;BMP180;44713;53.378;10.022;2023-03-23T06:05:15;99743.00;;;11.00
58929;BMP180;44713;53.378;10.022;2023-03-23T06:07:44;99735.00;;;11.00
58929;BMP180;44713;53.378;10.022;2023-03-23T06:10:10;99727.00;;;11.10
58929;BMP180;44713;53.378;10.022;2023-03-23T06:12:38;99720.00;;;11.00
58929;BMP180;44713;53.378;10.022;2023-03-23T06:15:06;99733.00;;;11.10
58929;BMP180;44713;53.378;10.022;2023-03-23T06:18:11;99735.00;;;11.00
58929;BMP180;44713;53.378;10.022;2023-03-23T06:21:00;99735.00;;;11.00
58929;BMP180;44713;53.378;10.022;2023-03-23T06:23:55;99739.00;;;10.90
58929;BMP180;44713;53.378;10.022;2023-03-23T06:26:28;99735.00;;;10.90
58929;BMP180;44713;53.378;10.022;2023-03-23T06:28:57;99747.00;;;11.00
58929;BMP180;44713;53.378;10.022;2023-03-23T06:31:24;99738.00;;;10.90
58929;BMP180;44713;53.378;10.022;2023-03-23T06:33:50;99745.00;;;11.00
58929;BMP180;44713;53.378;10.022;2023-03-23T06:36:16;99755.00;;;11.00
58929;BMP180;44713;53.378;10.022;2023-03-23T06:38:54;99754.00;;;11.00
58929;BMP180;44713;53.378;10.022;2023-03-23T06:41:28;99744.00;;;11.00
58929;BMP180;44713;53.378;10.022;2023-03-23T06:43:53;99747.00;;;11.10
58929;BMP180;44713;53.378;10.022;2023-03-23T06:46:24;99752.00;;;11.10
58929;BMP180;44713;53.378;10.022;2023-03-23T06:49:08;99762.00;;;11.10
58929;BMP180;44713;53.378;10.022;2023-03-23T06:51:43;99757.00;;;11.10
58929;BMP180;44713;53.378;10.022;2023-03-23T06:54:08;99743.00;;;11.10
58929;BMP180;44713;53.378;10.022;2023-03-23T06:56:38;99746.00;;;11.10
58929;BMP180;44713;53.378;10.022;2023-03-23T06:59:03;99736.00;;;11.10
58929;BMP180;44713;53.378;10.022;2023-03-23T07:01:29;99755.00;;;11.10
58929;BMP180;44713;53.378;10.022;2023-03-23T07:03:58;99747.00;;;11.20
58929;BMP180;44713;53.378;10.022;2023-03-23T07:06:35;99746.00;;;11.30
58929;BMP180;44713;53.378;10.022;2023-03-23T07:09:01;99752.00;;;11.30
58929;BMP180;44713;53.378;10.022;2023-03-23T07:11:28;99743.00;;;11.30
58929;BMP180;44713;53.378;10.022;2023-03-23T07:13:56;99733.00;;;11.30
58929;BMP180;44713;53.378;10.022;2023-03-23T07:16:22;99747.00;;;11.40
58929;BMP180;44713;53.378;10.022;2023-03-23T07:18:50;99752.00;;;11.50
58929;BMP180;44713;53.378;10.022;2023-03-23T07:21:16;99757.00;;;11.60
58929;BMP180;44713;53.378;10.022;2023-03-23T07:23:42;99750.00;;;11.60
58929;BMP180;44713;53.378;10.022;2023-03-23T07:26:10;99747.00;;;11.70
58929;BMP180;44713;53.378;10.022;2023-03-23T07:28:40;99743.00;;;11.70
58929;BMP180;44713;53.378;10.022;2023-03-23T07:31:26;99746.00;;;11.80
58929;BMP180;44713;53.378;10.022;2023-03-23T07:33:53;99749.00;;;11.90
58929;BMP180;44713;53.378;10.022;2023-03-23T07:36:19;99752.00;;;12.00
58929;BMP180;44713;53.378;10.022;2023-03-23T07:38:45;99754.00;;;12.10
58929;BMP180;44713;53.378;10.022;2023-03-23T07:41:12;99767.00;;;12.10
58929;BMP180;44713;53.378;10.022;2023-03-23T07:43:40;99759.00;;;12.10
58929;BMP180;44713;53.378;10.022;2023-03-23T07:46:09;99761.00;;;12.10
58929;BMP180;44713;53.378;10.022;2023-03-23T07:48:45;99763.00;;;12.00
58929;BMP180;44713;53.378;10.022;2023-03-23T07:51:11;99760.00;;;12.10
58929;BMP180;44713;53.378;10.022;2023-03-23T07:53:37;99761.00;;;12.30
58929;BMP180;44713;53.378;10.022;2023-03-23T07:56:17;99750.00;;;12.40
58929;BMP180;44713;53.378;10.022;2023-03-23T07:59:13;99751.00;;;12.50
58929;BMP180;44713;53.378;10.022;2023-03-23T08:01:41;99755.00;;;12.60
58929;BMP180;44713;53.378;10.022;2023-03-23T08:04:26;99763.00;;;12.60
58929;BMP180;44713;53.378;10.022;2023-03-23T08:07:14;99760.00;;;12.80
58929;BMP180;44713;53.378;10.022;2023-03-23T08:09:59;99755.00;;;12.90
58929;BMP180;44713;53.378;10.022;2023-03-23T08:12:31;99760.00;;;13.00
58929;BMP180;44713;53.378;10.022;2023-03-23T08:15:26;99768.00;;;13.10
58929;BMP180;44713;53.378;10.022;2023-03-23T08:18:11;99772.00;;;13.20
58929;BMP180;44713;53.378;10.022;2023-03-23T08:20:55;99773.00;;;13.30
58929;BMP180;44713;53.378;10.022;2023-03-23T08:23:33;99770.00;;;13.40
58929;BMP180;44713;53.378;10.022;2023-03-23T08:26:34;99779.00;;;13.30
58929;BMP180;44713;53.378;10.022;2023-03-23T08:29:17;99792.00;;;13.30
58929;BMP180;44713;53.378;10.022;2023-03-23T08:32:06;99798.00;;;13.00
58929;BMP180;44713;53.378;10.022;2023-03-23T08:34:44;99821.00;;;12.80
58929;BMP180;44713;53.378;10.022;2023-03-23T08:37:28;99841.00;;;12.50
58929;BMP180;44713;53.378;10.022;2023-03-23T08:40:18;99847.00;;;12.00
58929;BMP180;44713;53.378;10.022;2023-03-23T08:43:10;99858.00;;;11.80
58929;BMP180;44713;53.378;10.022;2023-03-23T08:46:09;99828.00;;;11.40
58929;BMP180;44713;53.378;10.022;2023-03-23T08:49:11;99829.00;;;11.40
58929;BMP180;44713;53.378;10.022;2023-03-23T08:52:12;99841.00;;;11.30
58929;BMP180;44713;53.378;10.022;2023-03-23T08:55:17;99839.00;;;11.10
58929;BMP180;44713;53.378;10.022;2023-03-23T08:58:14;99836.00;;;11.20
58929;BMP180;44713;53.378;10.022;2023-03-23T09:00:54;99840.00;;;11.20
58929;BMP180;44713;53.378;10.022;2023-03-23T09:03:45;99848.00;;;11.20
58929;BMP180;44713;53.378;10.022;2023-03-23T09:06:35;99858.00;;;11.30
58929;BMP180;44713;53.378;10.022;2023-03-23T09:09:00;99853.00;;;11.30
58929;BMP180;44713;53.378;10.022;2023-03-23T09:11:27;99852.00;;;11.30
58929;BMP180;44713;53.378;10.022;2023-03-23T09:13:52;99852.00;;;11.40
58929;BMP180;44713;53.378;10.022;2023-03-23T09:16:18;99846.00;;;11.40
58929;BMP180;44713;53.378;10.022;2023-03-23T09:18:43;99850.00;;;11.50
58929;BMP180;44713;53.378;10.022;2023-03-23T09:21:09;99864.00;;;11.60
58929;BMP180;44713;53.378;10.022;2023-03-23T09:23:34;99867.00;;;11.60
58929;BMP180;44713;53.378;10.022;2023-03-23T09:26:01;99863.00;;;11.70
58929;BMP180;44713;53.378;10.022;2023-03-23T09:28:28;99866.00;;;11.80
58929;BMP180;44713;53.378;10.022;2023-03-23T09:30:56;99868.00;;;11.70
58929;BMP180;44713;53.378;10.022;2023-03-23T09:33:22;99864.00;;;11.70
58929;BMP180;44713;53.378;10.022;2023-03-23T09:35:48;99875.00;;;11.80
58929;BMP180;44713;53.378;10.022;2023-03-23T09:38:13;99879.00;;;11.90
58929;BMP180;44713;53.378;10.022;2023-03-23T09:40:46;99873.00;;;11.90
58929;BMP180;44713;53.378;10.022;2023-03-23T09:46:35;99882.00;;;12.00
58929;BMP180;44713;53.378;10.022;2023-03-23T09:49:10;99885.00;;;12.10
58929;BMP180;44713;53.378;10.022;2023-03-23T09:54:20;99881.00;;;12.30
58929;BMP180;44713;53.378;10.022;2023-03-23T09:56:47;99887.00;;;12.50
58929;BMP180;44713;53.378;10.022;2023-03-23T10:02:16;99886.00;;;12.70
58929;BMP180;44713;53.378;10.022;2023-03-23T10:04:51;99889.00;;;12.80
58929;BMP180;44713;53.378;10.022;2023-03-23T10:07:18;99893.00;;;12.80
58929;BMP180;44713;53.378;10.022;2023-03-23T10:09:46;99891.00;;;12.80
58929;BMP180;44713;53.378;10.022;2023-03-23T10:15:17;99898.00;;;12.80
58929;BMP180;44713;53.378;10.022;2023-03-23T10:18:04;99896.00;;;12.90
58929;BMP180;44713;53.378;10.022;2023-03-23T10:23:42;99916.00;;;12.90
58929;BMP180;44713;53.378;10.022;2023-03-23T10:26:31;99917.00;;;13.00
58929;BMP180;44713;53.378;10.022;2023-03-23T10:29:23;99918.00;;;13.00
58929;BMP180;44713;53.378;10.022;2023-03-23T10:31:51;99916.00;;;13.10
58929;BMP180;44713;53.378;10.022;2023-03-23T10:34:22;99918.00;;;13.20
58929;BMP180;44713;53.378;10.022;2023-03-23T10:39:43;99925.00;;;13.50
58929;BMP180;44713;53.378;10.022;2023-03-23T10:42:10;99920.00;;;13.40
58929;BMP180;44713;53.378;10.022;2023-03-23T10:44:35;99924.00;;;13.30
58929;BMP180;44713;53.378;10.022;2023-03-23T10:47:07;99925.00;;;13.40
58929;BMP180;44713;53.378;10.022;2023-03-23T10:49:40;99928.00;;;13.30
58929;BMP180;44713;53.378;10.022;2023-03-23T10:54:36;99949.00;;;13.20
58929;BMP180;44713;53.378;10.022;2023-03-23T10:57:13;99948.00;;;13.20
58929;BMP180;44713;53.378;10.022;2023-03-23T10:59:40;99936.00;;;13.40
58929;BMP180;44713;53.378;10.022;2023-03-23T11:02:15;99940.00;;;13.40
58929;BMP180;44713;53.378;10.022;2023-03-23T11:04:45;99937.00;;;13.50
58929;BMP180;44713;53.378;10.022;2023-03-23T11:07:20;99943.00;;;13.60
58929;BMP180;44713;53.378;10.022;2023-03-23T11:09:54;99952.00;;;13.70
58929;BMP180;44713;53.378;10.022;2023-03-23T11:12:21;99944.00;;;13.60
58929;BMP180;44713;53.378;10.022;2023-03-23T11:14:48;99953.00;;;13.70
58929;BMP180;44713;53.378;10.022;2023-03-23T11:17:27;99949.00;;;13.60
58929;BMP180;44713;53.378;10.022;2023-03-23T11:19:53;99939.00;;;13.50
58929;BMP180;44713;53.378;10.022;2023-03-23T11:24:53;99938.00;;;13.60
58929;BMP180;44713;53.378;10.022;2023-03-23T11:27:20;99945.00;;;13.50
58929;BMP180;44713;53.378;10.022;2023-03-23T11:29:55;99941.00;;;13.60
58929;BMP180;44713;53.378;10.022;2023-03-23T11:32:27;99950.00;;;13.70
58929;BMP180;44713;53.378;10.022;2023-03-23T11:34:56;99970.00;;;13.60
58929;BMP180;44713;53.378;10.022;2023-03-23T11:37:58;99968.00;;;13.50
58929;BMP180;44713;53.378;10.022;2023-03-23T11:40:30;99954.00;;;13.50
58929;BMP180;44713;53.378;10.022;2023-03-23T11:43:00;99969.00;;;13.40
58929;BMP180;44713;53.378;10.022;2023-03-23T11:45:38;99961.00;;;13.50
58929;BMP180;44713;53.378;10.022;2023-03-23T11:48:29;99966.00;;;13.50
58929;BMP180;44713;53.378;10.022;2023-03-23T11:56:36;99983.00;;;13.30
58929;BMP180;44713;53.378;10.022;2023-03-23T11:59:05;99978.00;;;13.20
58929;BMP180;44713;53.378;10.022;2023-03-23T12:01:47;99978.00;;;13.20
58929;BMP180;44713;53.378;10.022;2023-03-23T12:09:56;99990.00;;;13.30
58929;BMP180;44713;53.378;10.022;2023-03-23T12:20:49;99994.00;;;13.30
58929;BMP180;44713;53.378;10.022;2023-03-23T12:23:36;99993.00;;;13.30
58929;BMP180;44713;53.378;10.022;2023-03-23T12:26:15;99976.00;;;13.10
58929;BMP180;44713;53.378;10.022;2023-03-23T12:28:54;99976.00;;;13.20
58929;BMP180;44713;53.378;10.022;2023-03-23T12:31:36;99971.00;;;13.20
58929;BMP180;44713;53.378;10.022;2023-03-23T12:34:22;99981.00;;;13.20
58929;BMP180;44713;53.378;10.022;2023-03-23T12:47:48;99973.00;;;13.40
58929;BMP180;44713;53.378;10.022;2023-03-23T12:50:21;99968.00;;;13.50
58929;BMP180;44713;53.378;10.022;2023-03-23T12:53:09;99974.00;;;13.50
58929;BMP180;44713;53.378;10.022;2023-03-23T12:55:45;99956.00;;;13.50
58929;BMP180;44713;53.378;10.022;2023-03-23T12:58:23;99949.00;;;13.50
58929;BMP180;44713;53.378;10.022;2023-03-23T13:01:04;99946.00;;;13.70
58929;BMP180;44713;53.378;10.022;2023-03-23T13:03:39;99942.00;;;13.80
58929;BMP180;44713;53.378;10.022;2023-03-23T13:06:30;99963.00;;;14.30
58929;BMP180;44713;53.378;10.022;2023-03-23T13:11:44;99957.00;;;14.80
58929;BMP180;44713;53.378;10.022;2023-03-23T13:14:27;99952.00;;;14.70
58929;BMP180;44713;53.378;10.022;2023-03-23T13:17:24;99966.00;;;14.50
58929;BMP180;44713;53.378;10.022;2023-03-23T13:20:00;99955.00;;;14.20
58929;BMP180;44713;53.378;10.022;2023-03-23T13:22:39;99958.00;;;14.40
58929;BMP180;44713;53.378;10.022;2023-03-23T13:25:13;99946.00;;;14.40
58929;BMP180;44713;53.378;10.022;2023-03-23T13:27:40;99961.00;;;14.30
58929;BMP180;44713;53.378;10.022;2023-03-23T13:30:19;99951.00;;;14.30
58929;BMP180;44713;53.378;10.022;2023-03-23T13:32:50;99943.00;;;14.30
58929;BMP180;44713;53.378;10.022;2023-03-23T13:35:17;99939.00;;;14.30
58929;BMP180;44713;53.378;10.022;2023-03-23T13:37:48;99943.00;;;14.30
58929;BMP180;44713;53.378;10.022;2023-03-23T13:40:26;99944.00;;;14.40
58929;BMP180;44713;53.378;10.022;2023-03-23T13:42:55;99942.00;;;14.60
58929;BMP180;44713;53.378;10.022;2023-03-23T13:45:22;99940.00;;;14.70
58929;BMP180;44713;53.378;10.022;2023-03-23T13:47:48;99947.00;;;14.80
58929;BMP180;44713;53.378;10.022;2023-03-23T14:05:39;99942.00;;;15.70
58929;BMP180;44713;53.378;10.022;2023-03-23T14:10:37;99928.00;;;15.90
58929;BMP180;44713;53.378;10.022;2023-03-23T14:13:06;99924.00;;;15.30
58929;BMP180;44713;53.378;10.022;2023-03-23T14:15:42;99921.00;;;15.70
58929;BMP180;44713;53.378;10.022;2023-03-23T14:18:14;99928.00;;;15.80
58929;BMP180;44713;53.378;10.022;2023-03-23T14:20:41;99933.00;;;15.60
58929;BMP180;44713;53.378;10.022;2023-03-23T14:23:15;99953.00;;;15.10
58929;BMP180;44713;53.378;10.022;2023-03-23T14:25:40;99974.00;;;14.80
58929;BMP180;44713;53.378;10.022;2023-03-23T14:28:17;99975.00;;;14.50
58929;BMP180;44713;53.378;10.022;2023-03-23T14:30:42;99970.00;;;14.10
58929;BMP180;44713;53.378;10.022;2023-03-23T14:33:11;99961.00;;;13.80
58929;BMP180;44713;53.378;10.022;2023-03-23T14:35:41;99954.00;;;13.70
58929;BMP180;44713;53.378;10.022;2023-03-23T14:38:15;99969.00;;;13.30
58929;BMP180;44713;53.378;10.022;2023-03-23T14:40:41;99976.00;;;13.00
58929;BMP180;44713;53.378;10.022;2023-03-23T14:43:09;99972.00;;;12.80
58929;BMP180;44713;53.378;10.022;2023-03-23T14:45:38;99979.00;;;12.80
58929;BMP180;44713;53.378;10.022;2023-03-23T14:48:05;99967.00;;;12.70
58929;BMP180;44713;53.378;10.022;2023-03-23T14:50:48;99986.00;;;12.50
58929;BMP180;44713;53.378;10.022;2023-03-23T14:53:23;99986.00;;;12.30
58929;BMP180;44713;53.378;10.022;2023-03-23T14:55:52;99965.00;;;12.40
58929;BMP180;44713;53.378;10.022;2023-03-23T14:58:20;99959.00;;;12.50
58929;BMP180;44713;53.378;10.022;2023-03-23T15:03:22;99981.00;;;12.70
58929;BMP180;44713;53.378;10.022;2023-03-23T15:05:55;99990.00;;;12.80
58929;BMP180;44713;53.378;10.022;2023-03-23T15:08:25;99999.00;;;13.00
58929;BMP180;44713;53.378;10.022;2023-03-23T15:13:47;100015.00;;;13.10
58929;BMP180;44713;53.378;10.022;2023-03-23T15:16:17;100010.00;;;13.00
58929;BMP180;44713;53.378;10.022;2023-03-23T15:18:53;100012.00;;;13.10
58929;BMP180;44713;53.378;10.022;2023-03-23T15:21:27;100026.00;;;13.00
58929;BMP180;44713;53.378;10.022;2023-03-23T15:23:52;100033.00;;;12.90
58929;BMP180;44713;53.378;10.022;2023-03-23T15:29:21;100063.00;;;12.40
58929;BMP180;44713;53.378;10.022;2023-03-23T15:31:52;100076.00;;;12.10
58929;BMP180;44713;53.378;10.022;2023-03-23T15:34:32;100075.00;;;11.70
58929;BMP180;44713;53.378;10.022;2023-03-23T15:37:03;100046.00;;;11.70
58929;BMP180;44713;53.378;10.022;2023-03-23T15:39:30;100035.00;;;11.90
58929;BMP180;44713;53.378;10.022;2023-03-23T15:41:57;100021.00;;;12.10
58929;BMP180;44713;53.378;10.022;2023-03-23T15:44:26;100016.00;;;12.30
58929;BMP180;44713;53.378;10.022;2023-03-23T15:47:01;100004.00;;;12.30
58929;BMP180;44713;53.378;10.022;2023-03-23T15:49:27;100010.00;;;12.40
58929;BMP180;44713;53.378;10.022;2023-03-23T15:51:53;100007.00;;;12.40
58929;BMP180;44713;53.378;10.022;2023-03-23T15:54:18;99993.00;;;12.30